createdAt,value
2023-04-26T00:00:26.755Z,3.00
2023-04-26T00:04:44.899Z,4.17
2023-04-26T00:08:01.027Z,3.70
2023-04-26T00:11:21.580Z,3.77
2023-04-26T00:14:39.584Z,3.87
2023-04-26T00:18:22.542Z,3.50
2023-04-26T00:21:26.793Z,3.43
2023-04-26T00:24:29.235Z,3.50
2023-04-26T00:28:23.616Z,3.57
2023-04-26T00:31:49.978Z,2.93
2023-04-26T00:38:59.991Z,3.17
2023-04-26T00:42:23.932Z,3.17
2023-04-26T00:45:40.453Z,2.73
2023-04-26T00:49:04.170Z,3.10
2023-04-26T00:52:43.628Z,2.97
2023-04-26T00:55:59.325Z,2.67
2023-04-26T00:59:50.072Z,3.27
2023-04-26T01:03:27.202Z,3.03
2023-04-26T01:07:09.710Z,2.80
2023-04-26T01:10:32.714Z,2.53
2023-04-26T01:13:53.186Z,2.30
2023-04-26T01:17:01.599Z,2.27
2023-04-26T01:20:33.188Z,2.20
2023-04-26T01:23:51.379Z,2.67
2023-04-26T01:26:53.725Z,1.80
2023-04-26T01:29:55.793Z,2.43
2023-04-26T01:32:58.185Z,2.43
2023-04-26T01:36:00.246Z,1.63
2023-04-26T01:39:17.376Z,1.67
2023-04-26T01:43:12.928Z,2.53
2023-04-26T01:46:52.348Z,1.90
2023-04-26T01:50:07.989Z,1.80
2023-04-26T01:58:20.620Z,1.70
2023-04-26T02:01:36.147Z,2.13
2023-04-26T02:05:39.863Z,2.37
2023-04-26T02:09:04.399Z,3.97
2023-04-26T02:12:30.717Z,1.67
2023-04-26T02:16:00.237Z,1.70
2023-04-26T02:22:59.835Z,1.87
2023-04-26T02:26:02.145Z,1.57
2023-04-26T02:29:04.088Z,1.70
2023-04-26T02:36:26.226Z,2.43
2023-04-26T02:39:31.636Z,1.53
2023-04-26T02:43:47.227Z,1.83
2023-04-26T02:47:32.377Z,1.70
2023-04-26T02:50:54.826Z,1.90
2023-04-26T02:54:19.145Z,1.83
2023-04-26T02:57:26.825Z,1.70
2023-04-26T03:01:10.860Z,1.83
2023-04-26T03:04:39.205Z,1.53
2023-04-26T03:12:02.154Z,1.70
2023-04-26T03:15:07.641Z,1.57
2023-04-26T03:18:36.187Z,1.93
2023-04-26T03:25:37.969Z,1.60
2023-04-26T03:28:55.099Z,2.00
2023-04-26T03:32:27.088Z,1.40
2023-04-26T03:39:35.312Z,1.93
2023-04-26T03:43:00.127Z,1.67
2023-04-26T03:46:02.129Z,1.80
2023-04-26T03:49:16.594Z,2.13
2023-04-26T03:52:49.859Z,1.70
2023-04-26T03:56:03.279Z,1.67
2023-04-26T03:59:30.413Z,1.60
2023-04-26T04:03:26.814Z,1.77
2023-04-26T04:07:07.404Z,1.70
2023-04-26T04:10:17.595Z,1.63
2023-04-26T04:13:20.061Z,1.60
2023-04-26T04:16:55.742Z,1.50
2023-04-26T04:21:05.181Z,1.53
2023-04-26T04:24:12.884Z,1.90
2023-04-26T04:28:12.728Z,1.80
2023-04-26T04:31:54.499Z,2.30
2023-04-26T04:35:00.515Z,2.90
2023-04-26T04:38:35.869Z,2.00
2023-04-26T04:42:08.577Z,2.00
2023-04-26T04:45:35.844Z,2.00
2023-04-26T04:49:20.088Z,2.43
2023-04-26T04:52:22.828Z,2.17
2023-04-26T04:55:24.868Z,2.50
2023-04-26T04:58:27.843Z,1.70
2023-04-26T05:01:44.967Z,1.70
2023-04-26T05:04:51.045Z,1.93
2023-04-26T05:07:53.463Z,1.60
2023-04-26T05:11:00.627Z,1.73
2023-04-26T05:14:06.397Z,1.33
2023-04-26T05:17:13.769Z,1.52
2023-04-26T05:20:33.944Z,1.98
2023-04-26T05:23:40.085Z,1.50
2023-04-26T05:26:49.986Z,1.57
2023-04-26T05:29:55.863Z,1.50
2023-04-26T05:32:58.139Z,1.75
2023-04-26T05:36:01.534Z,1.30
2023-04-26T05:39:05.911Z,1.88
2023-04-26T05:42:08.820Z,1.92
2023-04-26T05:45:14.034Z,1.65
2023-04-26T05:56:14.955Z,1.95
2023-04-26T05:59:17.149Z,2.10
2023-04-26T06:02:25.246Z,2.10
2023-04-26T06:06:16.562Z,2.20
2023-04-26T06:09:36.992Z,1.70
2023-04-26T06:12:39.273Z,2.20
2023-04-26T06:15:41.701Z,2.10
2023-04-26T06:18:43.901Z,2.38
2023-04-26T06:21:49.808Z,2.25
2023-04-26T06:24:53.085Z,2.28
2023-04-26T06:27:55.805Z,2.00
2023-04-26T06:31:00.392Z,2.55
2023-04-26T06:34:03.368Z,2.22
2023-04-26T06:37:06.425Z,2.13
2023-04-26T06:40:09.730Z,2.20
2023-04-26T06:43:12.339Z,2.47
2023-04-26T06:46:15.410Z,25.55
2023-04-26T06:49:21.316Z,4.03
2023-04-26T06:52:24.268Z,3.20
2023-04-26T06:55:37.805Z,5.22
2023-04-26T06:59:00.676Z,3.65
2023-04-26T07:02:19.426Z,3.13
2023-04-26T07:05:23.562Z,3.03
2023-04-26T07:08:26.181Z,3.20
2023-04-26T07:11:29.369Z,4.70
2023-04-26T07:14:31.938Z,3.17
2023-04-26T07:17:38.999Z,3.35
2023-04-26T07:20:45.208Z,3.72
2023-04-26T07:23:56.974Z,8.95
2023-04-26T07:27:01.217Z,1.65
2023-04-26T07:30:07.581Z,2.08
2023-04-26T07:33:10.503Z,2.30
2023-04-26T07:36:13.249Z,1.92
2023-04-26T07:39:15.827Z,2.40
2023-04-26T07:42:22.269Z,2.47
2023-04-26T07:45:24.580Z,1.65
2023-04-26T07:48:27.176Z,2.55
2023-04-26T07:51:29.511Z,1.90
2023-04-26T07:54:32.153Z,1.88
2023-04-26T07:57:34.569Z,2.17
2023-04-26T08:00:38.840Z,1.63
2023-04-26T08:03:41.235Z,1.65
2023-04-26T08:06:45.238Z,1.52
2023-04-26T08:09:49.127Z,2.05
2023-04-26T08:12:51.712Z,2.33
2023-04-26T08:15:54.190Z,2.08
2023-04-26T08:19:02.801Z,1.55
2023-04-26T08:22:05.906Z,2.28
2023-04-26T08:25:09.674Z,1.70
2023-04-26T08:28:14.477Z,1.63
2023-04-26T08:31:17.764Z,1.90
2023-04-26T08:34:19.909Z,1.60
2023-04-26T08:37:22.531Z,1.70
2023-04-26T08:40:25.434Z,1.50
2023-04-26T08:43:36.307Z,1.90
2023-04-26T08:47:07.013Z,1.53
2023-04-26T08:50:15.463Z,1.50
2023-04-26T08:53:18.321Z,1.90
2023-04-26T08:56:24.270Z,2.10
2023-04-26T08:59:26.831Z,3.43
2023-04-26T09:02:29.841Z,3.50
2023-04-26T09:05:34.404Z,1.20
2023-04-26T09:08:40.455Z,1.70
2023-04-26T09:11:57.911Z,6.33
2023-04-26T09:15:01.327Z,3.20
2023-04-26T09:18:22.720Z,2.47
2023-04-26T09:21:25.859Z,2.50
2023-04-26T09:24:50.991Z,4.30
2023-04-26T09:28:00.851Z,3.87
2023-04-26T09:31:03.295Z,1.90
2023-04-26T09:34:06.308Z,1.70
2023-04-26T09:37:14.166Z,2.97
2023-04-26T09:40:21.040Z,4.63
2023-04-26T09:43:23.581Z,2.03
2023-04-26T09:46:26.296Z,1.80
2023-04-26T09:49:34.270Z,3.57
2023-04-26T09:52:47.255Z,2.90
2023-04-26T09:55:50.047Z,3.87
2023-04-26T09:59:05.616Z,3.07
2023-04-26T10:02:18.576Z,3.13
2023-04-26T10:05:22.169Z,1.83
2023-04-26T10:08:24.598Z,1.73
2023-04-26T10:11:27.504Z,2.03
2023-04-26T10:14:30.193Z,1.70
2023-04-26T10:17:33.206Z,1.63
2023-04-26T10:20:44.280Z,1.60
2023-04-26T10:23:53.603Z,1.40
2023-04-26T10:27:02.531Z,2.90
2023-04-26T10:30:12.252Z,2.17
2023-04-26T10:33:17.751Z,1.63
2023-04-26T10:36:21.170Z,1.80
2023-04-26T10:39:24.791Z,1.80
2023-04-26T10:42:33.319Z,2.83
2023-04-26T10:45:42.299Z,1.42
2023-04-26T10:48:54.280Z,1.60
2023-04-26T10:52:16.056Z,1.43
2023-04-26T10:56:13.038Z,1.80
2023-04-26T11:02:55.123Z,2.53
2023-04-26T11:05:59.385Z,2.63
2023-04-26T11:09:03.357Z,3.70
2023-04-26T11:12:16.574Z,2.80
2023-04-26T11:15:18.857Z,1.60
2023-04-26T11:18:22.306Z,1.50
2023-04-26T11:21:26.912Z,1.60
2023-04-26T11:24:31.762Z,1.77
2023-04-26T11:27:34.073Z,1.17
2023-04-26T11:30:41.657Z,1.67
2023-04-26T11:33:43.809Z,1.33
2023-04-26T11:36:46.771Z,1.23
2023-04-26T11:39:51.143Z,1.73
2023-04-26T11:42:53.731Z,1.50
2023-04-26T11:46:08.295Z,1.80
2023-04-26T11:49:12.666Z,1.52
2023-04-26T11:53:06.086Z,1.65
2023-04-26T11:56:39.410Z,1.70
2023-04-26T12:01:20.614Z,2.28
2023-04-26T12:10:01.272Z,1.50
2023-04-26T12:17:10.986Z,1.55
2023-04-26T12:20:27.191Z,1.70
2023-04-26T12:23:52.202Z,1.50
2023-04-26T12:27:21.505Z,1.98
2023-04-26T12:31:19.728Z,1.50
2023-04-26T12:34:25.484Z,2.00
2023-04-26T12:37:45.454Z,1.58
2023-04-26T12:41:36.099Z,1.48
2023-04-26T12:44:56.224Z,1.40
2023-04-26T12:48:04.369Z,1.63
2023-04-26T12:51:20.632Z,1.40
2023-04-26T12:54:24.608Z,1.75
2023-04-26T12:57:45.214Z,1.40
2023-04-26T13:01:01.794Z,4.63
2023-04-26T13:04:07.833Z,3.78
2023-04-26T13:07:16.812Z,3.83
2023-04-26T13:10:20.222Z,1.98
2023-04-26T13:13:32.397Z,3.70
2023-04-26T13:17:08.251Z,2.63
2023-04-26T13:20:26.291Z,2.43
2023-04-26T13:23:32.447Z,1.80
2023-04-26T13:26:34.603Z,1.53
2023-04-26T13:29:37.304Z,2.60
2023-04-26T13:32:42.961Z,3.00
2023-04-26T13:35:46.049Z,2.10
2023-04-26T13:38:49.806Z,1.77
2023-04-26T13:41:53.177Z,7.60
2023-04-26T13:44:55.577Z,1.80
2023-04-26T13:48:09.632Z,1.88
2023-04-26T13:51:32.426Z,1.55
2023-04-26T13:54:59.960Z,1.73
2023-04-26T13:58:02.864Z,1.77
2023-04-26T14:01:05.083Z,1.37
2023-04-26T14:04:10.890Z,1.40
2023-04-26T14:07:19.151Z,1.97
2023-04-26T14:10:22.246Z,1.90
2023-04-26T14:13:27.608Z,1.67
2023-04-26T14:16:30.046Z,1.27
2023-04-26T14:19:32.340Z,1.70
2023-04-26T14:22:37.758Z,2.00
2023-04-26T14:25:40.041Z,2.20
2023-04-26T14:28:42.530Z,1.57
2023-04-26T14:31:45.327Z,1.27
2023-04-26T14:34:48.158Z,1.70
2023-04-26T14:37:50.222Z,1.50
2023-04-26T14:40:52.689Z,1.50
2023-04-26T14:43:56.495Z,1.40
2023-04-26T14:47:00.605Z,1.73
2023-04-26T14:50:02.530Z,1.73
2023-04-26T14:53:04.994Z,2.17
2023-04-26T14:56:16.197Z,1.87
2023-04-26T14:59:26.673Z,2.00
2023-04-26T15:02:43.486Z,2.23
2023-04-26T15:05:53.676Z,1.67
2023-04-26T15:09:10.397Z,1.83
2023-04-26T15:12:25.563Z,2.10
2023-04-26T15:15:32.274Z,1.70
2023-04-26T15:18:38.160Z,1.80
2023-04-26T15:21:44.366Z,1.70
2023-04-26T15:24:59.216Z,2.00
2023-04-26T15:28:32.473Z,2.13
2023-04-26T15:32:04.028Z,2.20
2023-04-26T15:35:10.574Z,2.13
2023-04-26T15:38:16.506Z,2.60
2023-04-26T15:41:19.374Z,2.30
2023-04-26T15:44:28.918Z,2.40
2023-04-26T15:47:31.251Z,1.90
2023-04-26T15:50:33.962Z,2.17
2023-04-26T15:53:43.422Z,2.40
2023-04-26T15:56:55.813Z,2.50
2023-04-26T16:00:06.621Z,2.23
2023-04-26T16:03:09.408Z,1.60
2023-04-26T16:06:12.091Z,1.90
2023-04-26T16:09:25.119Z,1.97
2023-04-26T16:12:28.195Z,1.70
2023-04-26T16:15:30.698Z,1.83
2023-04-26T16:18:32.851Z,2.10
2023-04-26T16:21:36.223Z,1.93
2023-04-26T16:24:39.116Z,2.40
2023-04-26T16:27:41.414Z,2.13
2023-04-26T16:30:43.525Z,2.00
2023-04-26T16:33:47.028Z,2.13
2023-04-26T16:36:49.276Z,2.40
2023-04-26T16:39:56.016Z,1.90
2023-04-26T16:42:58.030Z,2.10
2023-04-26T16:46:09.257Z,2.03
2023-04-26T16:49:16.853Z,2.13
2023-04-26T16:52:20.046Z,2.27
2023-04-26T16:55:22.466Z,2.13
2023-04-26T16:58:25.893Z,2.20
2023-04-26T17:01:28.472Z,2.10
2023-04-26T17:04:34.461Z,2.30
2023-04-26T17:07:37.030Z,6.87
2023-04-26T17:10:39.954Z,2.73
2023-04-26T17:13:42.293Z,2.50
2023-04-26T17:16:44.941Z,2.50
2023-04-26T17:19:50.734Z,2.50
2023-04-26T17:23:08.054Z,3.03
2023-04-26T17:34:06.381Z,3.47
2023-04-26T17:37:19.640Z,2.70
2023-04-26T17:40:53.790Z,2.87
2023-04-26T17:44:21.860Z,2.60
2023-04-26T17:47:32.985Z,2.70
2023-04-26T17:53:59.521Z,2.83
2023-04-26T17:57:10.077Z,4.00
2023-04-26T18:00:12.949Z,3.70
2023-04-26T18:03:41.192Z,4.43
2023-04-26T18:07:05.637Z,7.47
2023-04-26T18:10:22.797Z,4.60
2023-04-26T18:13:42.866Z,4.40
2023-04-26T18:21:04.772Z,4.30
2023-04-26T18:24:15.479Z,4.70
2023-04-26T18:28:08.943Z,4.50
2023-04-26T18:31:50.668Z,4.47
2023-04-26T18:35:29.375Z,4.60
2023-04-26T18:42:41.784Z,6.93
2023-04-26T18:46:43.655Z,7.63
2023-04-26T18:50:34.406Z,6.93
2023-04-26T18:54:10.190Z,8.87
2023-04-26T19:01:39.987Z,8.20
2023-04-26T19:04:42.874Z,8.80
2023-04-26T19:07:47.178Z,8.23
2023-04-26T19:10:52.303Z,8.67
2023-04-26T19:13:54.287Z,9.20
2023-04-26T19:16:57.291Z,8.77
2023-04-26T19:19:59.330Z,8.70
2023-04-26T19:23:01.684Z,9.37
2023-04-26T19:26:28.684Z,9.83
2023-04-26T19:29:58.008Z,9.93
2023-04-26T19:41:42.780Z,8.80
2023-04-26T19:45:51.449Z,9.03
2023-04-26T19:50:02.559Z,8.80
2023-04-26T19:53:48.160Z,7.57
2023-04-26T19:57:06.896Z,7.50
2023-04-26T20:00:43.096Z,7.63
2023-04-26T20:03:56.951Z,8.90
2023-04-26T20:07:03.152Z,9.00
2023-04-26T20:10:34.354Z,9.07
2023-04-26T20:14:13.781Z,9.53
2023-04-26T20:17:47.796Z,9.00
2023-04-26T20:21:00.137Z,9.30
2023-04-26T20:24:31.152Z,10.83
2023-04-26T20:27:44.776Z,12.40
2023-04-26T20:30:59.291Z,11.33
2023-04-26T20:34:12.701Z,12.47
2023-04-26T20:37:39.345Z,11.43
2023-04-26T20:41:13.798Z,12.60
2023-04-26T20:44:19.643Z,10.67
2023-04-26T20:47:41.005Z,9.43
2023-04-26T20:51:06.819Z,7.87
2023-04-26T20:54:14.973Z,7.00
2023-04-26T20:57:17.312Z,6.90
2023-04-26T21:05:22.385Z,7.70
2023-04-26T21:08:24.764Z,6.77
2023-04-26T21:16:25.758Z,6.50
2023-04-26T21:20:39.800Z,7.23
2023-04-26T21:32:50.901Z,8.20
2023-04-26T21:36:35.537Z,8.03
2023-04-26T21:40:27.047Z,9.20
2023-04-26T21:52:21.994Z,10.17
2023-04-26T21:56:32.328Z,9.63
2023-04-26T22:00:08.285Z,9.80
2023-04-26T22:03:14.139Z,9.60
2023-04-26T22:19:00.793Z,9.30
2023-04-26T22:23:25.751Z,9.33
2023-04-26T22:31:40.569Z,17.40
2023-04-26T22:37:01.255Z,18.93
2023-04-26T22:39:53.373Z,17.33
2023-04-26T22:43:54.208Z,13.40
2023-04-26T22:47:09.215Z,12.60
2023-04-26T22:55:55.618Z,10.40
2023-04-26T22:59:49.186Z,11.67
2023-04-26T23:03:18.964Z,10.87
2023-04-26T23:06:21.050Z,11.80
2023-04-26T23:17:33.789Z,10.60
2023-04-26T23:21:00.610Z,11.00
2023-04-26T23:24:27.432Z,11.07
2023-04-26T23:32:43.762Z,13.87
2023-04-26T23:36:03.649Z,14.67
2023-04-26T23:40:20.878Z,15.97
2023-04-26T23:43:23.114Z,17.73
2023-04-26T23:47:52.998Z,19.80
2023-04-26T23:55:09.413Z,19.53
